sensor_id;sensor_type;location;lat;lon;timestamp;P1;durP1;ratioP1;P2;durP2;ratioP2
3000;SDS011;1510;51.072;6.678;2023-02-01T00:02:09;578.70;;;547.50;;
3000;SDS011;1510;51.072;6.678;2023-02-01T00:04:36;575.03;;;544.90;;
3000;SDS011;1510;51.072;6.678;2023-02-01T00:07:02;448.43;;;430.33;;
3000;SDS011;1510;51.072;6.678;2023-02-01T00:09:29;479.87;;;459.10;;
3000;SDS011;1510;51.072;6.678;2023-02-01T00:11:57;452.07;;;432.70;;
3000;SDS011;1510;51.072;6.678;2023-02-01T00:14:26;471.67;;;449.97;;
3000;SDS011;1510;51.072;6.678;2023-02-01T00:16:53;412.30;;;395.47;;
3000;SDS011;1510;51.072;6.678;2023-02-01T00:19:20;414.87;;;396.63;;
3000;SDS011;1510;51.072;6.678;2023-02-01T00:21:47;428.60;;;411.67;;
3000;SDS011;1510;51.072;6.678;2023-02-01T00:24:13;452.77;;;433.20;;
3000;SDS011;1510;51.072;6.678;2023-02-01T00:26:41;424.07;;;407.77;;
3000;SDS011;1510;51.072;6.678;2023-02-01T00:29:10;394.93;;;380.23;;
3000;SDS011;1510;51.072;6.678;2023-02-01T00:31:39;396.93;;;382.10;;
3000;SDS011;1510;51.072;6.678;2023-02-01T00:34:06;393.37;;;378.60;;
3000;SDS011;1510;51.072;6.678;2023-02-01T00:36:33;326.20;;;313.60;;
3000;SDS011;1510;51.072;6.678;2023-02-01T00:39:00;303.00;;;292.70;;
3000;SDS011;1510;51.072;6.678;2023-02-01T00:41:27;196.80;;;189.27;;
3000;SDS011;1510;51.072;6.678;2023-02-01T00:43:54;155.80;;;149.80;;
3000;SDS011;1510;51.072;6.678;2023-02-01T00:46:22;172.03;;;165.73;;
3000;SDS011;1510;51.072;6.678;2023-02-01T00:48:49;121.60;;;116.80;;
3000;SDS011;1510;51.072;6.678;2023-02-01T00:51:19;136.60;;;131.30;;
3000;SDS011;1510;51.072;6.678;2023-02-01T00:53:47;155.07;;;149.33;;
3000;SDS011;1510;51.072;6.678;2023-02-01T00:56:15;159.90;;;153.70;;
3000;SDS011;1510;51.072;6.678;2023-02-01T00:58:42;34.03;;;31.23;;
3000;SDS011;1510;51.072;6.678;2023-02-01T01:01:11;67.00;;;64.20;;
3000;SDS011;1510;51.072;6.678;2023-02-01T01:03:41;75.57;;;69.93;;
3000;SDS011;1510;51.072;6.678;2023-02-01T01:06:10;72.00;;;67.40;;
3000;SDS011;1510;51.072;6.678;2023-02-01T01:08:39;33.23;;;30.63;;
3000;SDS011;1510;51.072;6.678;2023-02-01T01:11:06;49.60;;;47.13;;
3000;SDS011;1510;51.072;6.678;2023-02-01T01:13:34;41.80;;;39.27;;
3000;SDS011;1510;51.072;6.678;2023-02-01T01:16:01;24.73;;;22.83;;
3000;SDS011;1510;51.072;6.678;2023-02-01T01:18:29;35.23;;;33.23;;
3000;SDS011;1510;51.072;6.678;2023-02-01T01:20:58;47.13;;;44.63;;
3000;SDS011;1510;51.072;6.678;2023-02-01T01:23:25;24.63;;;22.93;;
3000;SDS011;1510;51.072;6.678;2023-02-01T01:25:53;32.60;;;30.30;;
3000;SDS011;1510;51.072;6.678;2023-02-01T01:28:19;19.50;;;12.77;;
3000;SDS011;1510;51.072;6.678;2023-02-01T01:30:46;23.27;;;18.80;;
3000;SDS011;1510;51.072;6.678;2023-02-01T01:33:13;33.30;;;30.27;;
3000;SDS011;1510;51.072;6.678;2023-02-01T01:35:40;45.87;;;42.73;;
3000;SDS011;1510;51.072;6.678;2023-02-01T01:38:09;54.60;;;50.13;;
3000;SDS011;1510;51.072;6.678;2023-02-01T01:40:36;41.40;;;39.20;;
3000;SDS011;1510;51.072;6.678;2023-02-01T01:43:05;35.63;;;33.50;;
3000;SDS011;1510;51.072;6.678;2023-02-01T01:45:40;64.20;;;61.17;;
3000;SDS011;1510;51.072;6.678;2023-02-01T01:48:08;58.63;;;54.23;;
3000;SDS011;1510;51.072;6.678;2023-02-01T01:50:40;38.63;;;36.23;;
3000;SDS011;1510;51.072;6.678;2023-02-01T01:53:15;38.47;;;36.00;;
3000;SDS011;1510;51.072;6.678;2023-02-01T01:55:44;21.40;;;19.90;;
3000;SDS011;1510;51.072;6.678;2023-02-01T01:58:14;19.97;;;18.33;;
3000;SDS011;1510;51.072;6.678;2023-02-01T02:00:43;26.77;;;24.27;;
3000;SDS011;1510;51.072;6.678;2023-02-01T02:03:11;23.17;;;20.73;;
3000;SDS011;1510;51.072;6.678;2023-02-01T02:05:41;21.73;;;19.60;;
3000;SDS011;1510;51.072;6.678;2023-02-01T02:08:08;29.27;;;27.17;;
3000;SDS011;1510;51.072;6.678;2023-02-01T02:10:36;24.70;;;22.30;;
3000;SDS011;1510;51.072;6.678;2023-02-01T02:13:21;30.63;;;25.43;;
3000;SDS011;1510;51.072;6.678;2023-02-01T02:15:51;26.57;;;24.20;;
3000;SDS011;1510;51.072;6.678;2023-02-01T02:18:31;27.47;;;25.63;;
3000;SDS011;1510;51.072;6.678;2023-02-01T02:21:10;24.47;;;22.57;;
3000;SDS011;1510;51.072;6.678;2023-02-01T02:27:01;15.10;;;13.70;;
3000;SDS011;1510;51.072;6.678;2023-02-01T02:35:59;16.73;;;5.77;;
3000;SDS011;1510;51.072;6.678;2023-02-01T02:38:30;13.43;;;6.23;;
3000;SDS011;1510;51.072;6.678;2023-02-01T02:41:07;11.63;;;6.70;;
3000;SDS011;1510;51.072;6.678;2023-02-01T02:43:37;14.10;;;7.83;;
3000;SDS011;1510;51.072;6.678;2023-02-01T02:46:31;15.53;;;8.70;;
3000;SDS011;1510;51.072;6.678;2023-02-01T02:49:22;10.90;;;9.10;;
3000;SDS011;1510;51.072;6.678;2023-02-01T02:51:55;12.40;;;11.30;;
3000;SDS011;1510;51.072;6.678;2023-02-01T02:54:46;14.90;;;9.10;;
3000;SDS011;1510;51.072;6.678;2023-02-01T02:57:18;31.07;;;10.93;;
3000;SDS011;1510;51.072;6.678;2023-02-01T03:00:05;14.00;;;9.00;;
3000;SDS011;1510;51.072;6.678;2023-02-01T03:02:53;17.67;;;11.63;;
3000;SDS011;1510;51.072;6.678;2023-02-01T03:05:40;20.23;;;10.93;;
3000;SDS011;1510;51.072;6.678;2023-02-01T03:08:11;9.60;;;8.47;;
3000;SDS011;1510;51.072;6.678;2023-02-01T03:10:51;14.30;;;9.63;;
3000;SDS011;1510;51.072;6.678;2023-02-01T03:13:26;27.03;;;10.70;;
3000;SDS011;1510;51.072;6.678;2023-02-01T03:15:59;16.10;;;12.80;;
3000;SDS011;1510;51.072;6.678;2023-02-01T03:18:31;12.90;;;11.30;;
3000;SDS011;1510;51.072;6.678;2023-02-01T03:21:06;15.53;;;10.23;;
3000;SDS011;1510;51.072;6.678;2023-02-01T03:23:37;14.40;;;9.07;;
3000;SDS011;1510;51.072;6.678;2023-02-01T03:26:05;13.40;;;9.10;;
3000;SDS011;1510;51.072;6.678;2023-02-01T03:28:36;14.73;;;8.50;;
3000;SDS011;1510;51.072;6.678;2023-02-01T03:31:08;18.40;;;8.23;;
3000;SDS011;1510;51.072;6.678;2023-02-01T03:33:35;17.60;;;7.90;;
3000;SDS011;1510;51.072;6.678;2023-02-01T03:36:08;18.00;;;7.70;;
3000;SDS011;1510;51.072;6.678;2023-02-01T03:38:42;15.53;;;8.00;;
3000;SDS011;1510;51.072;6.678;2023-02-01T03:41:15;16.20;;;7.53;;
3000;SDS011;1510;51.072;6.678;2023-02-01T03:43:49;18.67;;;7.33;;
3000;SDS011;1510;51.072;6.678;2023-02-01T03:46:21;19.17;;;6.70;;
3000;SDS011;1510;51.072;6.678;2023-02-01T03:48:57;25.27;;;6.53;;
3000;SDS011;1510;51.072;6.678;2023-02-01T03:51:30;25.53;;;6.47;;
3000;SDS011;1510;51.072;6.678;2023-02-01T03:53:58;20.93;;;5.90;;
3000;SDS011;1510;51.072;6.678;2023-02-01T03:56:28;16.47;;;5.60;;
3000;SDS011;1510;51.072;6.678;2023-02-01T03:58:57;22.70;;;5.93;;
3000;SDS011;1510;51.072;6.678;2023-02-01T04:02:44;10.10;;;4.50;;
3000;SDS011;1510;51.072;6.678;2023-02-01T04:04:30;18.70;;;4.37;;
3000;SDS011;1510;51.072;6.678;2023-02-01T04:07:00;15.93;;;5.30;;
3000;SDS011;1510;51.072;6.678;2023-02-01T04:09:27;16.70;;;5.27;;
3000;SDS011;1510;51.072;6.678;2023-02-01T04:11:54;19.83;;;5.17;;
3000;SDS011;1510;51.072;6.678;2023-02-01T04:14:21;12.50;;;5.27;;
3000;SDS011;1510;51.072;6.678;2023-02-01T04:16:48;14.30;;;4.77;;
3000;SDS011;1510;51.072;6.678;2023-02-01T04:19:14;11.07;;;5.23;;
3000;SDS011;1510;51.072;6.678;2023-02-01T04:21:41;19.20;;;6.37;;
3000;SDS011;1510;51.072;6.678;2023-02-01T04:24:09;16.00;;;5.30;;
3000;SDS011;1510;51.072;6.678;2023-02-01T04:26:36;19.87;;;5.00;;
3000;SDS011;1510;51.072;6.678;2023-02-01T04:29:03;13.73;;;5.37;;
3000;SDS011;1510;51.072;6.678;2023-02-01T04:31:30;19.13;;;3.90;;
3000;SDS011;1510;51.072;6.678;2023-02-01T04:33:57;11.80;;;3.20;;
3000;SDS011;1510;51.072;6.678;2023-02-01T04:36:23;14.90;;;4.10;;
3000;SDS011;1510;51.072;6.678;2023-02-01T04:38:50;7.80;;;4.40;;
3000;SDS011;1510;51.072;6.678;2023-02-01T04:41:19;17.70;;;3.40;;
3000;SDS011;1510;51.072;6.678;2023-02-01T04:43:48;7.23;;;2.70;;
3000;SDS011;1510;51.072;6.678;2023-02-01T04:46:16;14.90;;;4.13;;
3000;SDS011;1510;51.072;6.678;2023-02-01T04:48:43;9.10;;;3.40;;
3000;SDS011;1510;51.072;6.678;2023-02-01T04:51:09;15.73;;;5.30;;
3000;SDS011;1510;51.072;6.678;2023-02-01T04:53:36;15.60;;;5.27;;
3000;SDS011;1510;51.072;6.678;2023-02-01T04:56:03;12.37;;;4.10;;
3000;SDS011;1510;51.072;6.678;2023-02-01T04:58:32;17.73;;;5.40;;
3000;SDS011;1510;51.072;6.678;2023-02-01T05:00:59;14.93;;;4.00;;
3000;SDS011;1510;51.072;6.678;2023-02-01T05:03:29;13.67;;;3.87;;
3000;SDS011;1510;51.072;6.678;2023-02-01T05:05:56;17.97;;;5.30;;
3000;SDS011;1510;51.072;6.678;2023-02-01T05:08:22;19.37;;;4.57;;
3000;SDS011;1510;51.072;6.678;2023-02-01T05:10:50;11.67;;;4.30;;
3000;SDS011;1510;51.072;6.678;2023-02-01T05:13:17;16.47;;;3.73;;
3000;SDS011;1510;51.072;6.678;2023-02-01T05:16:02;19.83;;;5.30;;
3000;SDS011;1510;51.072;6.678;2023-02-01T05:18:30;20.13;;;3.77;;
3000;SDS011;1510;51.072;6.678;2023-02-01T05:20:56;10.00;;;3.53;;
3000;SDS011;1510;51.072;6.678;2023-02-01T05:23:23;14.43;;;3.97;;
3000;SDS011;1510;51.072;6.678;2023-02-01T05:25:50;11.20;;;4.63;;
3000;SDS011;1510;51.072;6.678;2023-02-01T05:28:17;17.17;;;4.47;;
3000;SDS011;1510;51.072;6.678;2023-02-01T05:30:44;14.70;;;4.37;;
3000;SDS011;1510;51.072;6.678;2023-02-01T05:33:12;16.33;;;5.30;;
3000;SDS011;1510;51.072;6.678;2023-02-01T05:35:41;8.97;;;3.00;;
3000;SDS011;1510;51.072;6.678;2023-02-01T05:38:09;13.10;;;3.27;;
3000;SDS011;1510;51.072;6.678;2023-02-01T05:40:35;22.13;;;4.83;;
3000;SDS011;1510;51.072;6.678;2023-02-01T05:43:02;19.67;;;3.50;;
3000;SDS011;1510;51.072;6.678;2023-02-01T05:45:29;10.03;;;4.13;;
3000;SDS011;1510;51.072;6.678;2023-02-01T05:47:56;11.90;;;3.03;;
3000;SDS011;1510;51.072;6.678;2023-02-01T05:50:24;15.77;;;3.93;;
3000;SDS011;1510;51.072;6.678;2023-02-01T05:52:50;21.70;;;4.17;;
3000;SDS011;1510;51.072;6.678;2023-02-01T05:55:17;19.43;;;3.40;;
3000;SDS011;1510;51.072;6.678;2023-02-01T05:57:44;8.03;;;4.10;;
3000;SDS011;1510;51.072;6.678;2023-02-01T06:00:11;18.00;;;3.80;;
3000;SDS011;1510;51.072;6.678;2023-02-01T06:02:38;19.43;;;3.50;;
3000;SDS011;1510;51.072;6.678;2023-02-01T06:05:06;9.77;;;2.60;;
3000;SDS011;1510;51.072;6.678;2023-02-01T06:07:34;16.53;;;4.27;;
3000;SDS011;1510;51.072;6.678;2023-02-01T06:10:01;18.93;;;4.10;;
3000;SDS011;1510;51.072;6.678;2023-02-01T06:12:30;5.73;;;3.00;;
3000;SDS011;1510;51.072;6.678;2023-02-01T06:14:56;10.33;;;2.90;;
3000;SDS011;1510;51.072;6.678;2023-02-01T06:17:24;17.73;;;4.60;;
3000;SDS011;1510;51.072;6.678;2023-02-01T06:19:52;13.73;;;3.53;;
3000;SDS011;1510;51.072;6.678;2023-02-01T06:22:19;16.23;;;4.17;;
3000;SDS011;1510;51.072;6.678;2023-02-01T06:24:48;9.70;;;4.43;;
3000;SDS011;1510;51.072;6.678;2023-02-01T06:27:15;24.43;;;4.97;;
3000;SDS011;1510;51.072;6.678;2023-02-01T06:29:41;9.70;;;3.43;;
3000;SDS011;1510;51.072;6.678;2023-02-01T06:32:08;8.70;;;3.60;;
3000;SDS011;1510;51.072;6.678;2023-02-01T06:34:35;13.93;;;4.47;;
3000;SDS011;1510;51.072;6.678;2023-02-01T06:37:02;12.10;;;4.50;;
3000;SDS011;1510;51.072;6.678;2023-02-01T06:39:28;8.90;;;3.83;;
3000;SDS011;1510;51.072;6.678;2023-02-01T06:41:57;11.40;;;4.90;;
3000;SDS011;1510;51.072;6.678;2023-02-01T06:44:23;11.33;;;4.13;;
3000;SDS011;1510;51.072;6.678;2023-02-01T06:46:50;11.33;;;5.20;;
3000;SDS011;1510;51.072;6.678;2023-02-01T06:49:17;11.43;;;3.17;;
3000;SDS011;1510;51.072;6.678;2023-02-01T06:51:44;8.20;;;4.37;;
3000;SDS011;1510;51.072;6.678;2023-02-01T06:54:11;12.47;;;4.17;;
3000;SDS011;1510;51.072;6.678;2023-02-01T06:56:38;11.07;;;4.03;;
3000;SDS011;1510;51.072;6.678;2023-02-01T06:59:07;8.13;;;3.33;;
3000;SDS011;1510;51.072;6.678;2023-02-01T07:01:34;12.60;;;3.60;;
3000;SDS011;1510;51.072;6.678;2023-02-01T07:04:01;9.03;;;3.30;;
3000;SDS011;1510;51.072;6.678;2023-02-01T07:06:27;11.73;;;3.80;;
3000;SDS011;1510;51.072;6.678;2023-02-01T07:08:54;23.77;;;4.37;;
3000;SDS011;1510;51.072;6.678;2023-02-01T07:11:21;15.20;;;4.03;;
3000;SDS011;1510;51.072;6.678;2023-02-01T07:13:48;6.70;;;2.53;;
3000;SDS011;1510;51.072;6.678;2023-02-01T07:16:17;13.07;;;3.50;;
3000;SDS011;1510;51.072;6.678;2023-02-01T07:18:46;13.37;;;5.33;;
3000;SDS011;1510;51.072;6.678;2023-02-01T07:21:13;12.93;;;4.20;;
3000;SDS011;1510;51.072;6.678;2023-02-01T07:23:40;12.63;;;4.73;;
3000;SDS011;1510;51.072;6.678;2023-02-01T07:26:07;14.00;;;3.90;;
3000;SDS011;1510;51.072;6.678;2023-02-01T07:28:37;17.80;;;3.73;;
3000;SDS011;1510;51.072;6.678;2023-02-01T07:31:04;20.77;;;4.83;;
3000;SDS011;1510;51.072;6.678;2023-02-01T07:33:33;14.10;;;3.20;;
3000;SDS011;1510;51.072;6.678;2023-02-01T07:36:00;16.70;;;4.33;;
3000;SDS011;1510;51.072;6.678;2023-02-01T07:38:28;12.90;;;4.00;;
3000;SDS011;1510;51.072;6.678;2023-02-01T07:40:58;8.60;;;2.97;;
3000;SDS011;1510;51.072;6.678;2023-02-01T07:43:25;16.77;;;4.03;;
3000;SDS011;1510;51.072;6.678;2023-02-01T07:45:52;18.37;;;3.53;;
3000;SDS011;1510;51.072;6.678;2023-02-01T07:48:20;21.47;;;5.43;;
3000;SDS011;1510;51.072;6.678;2023-02-01T07:50:48;11.33;;;2.93;;
3000;SDS011;1510;51.072;6.678;2023-02-01T07:53:23;10.93;;;3.30;;
3000;SDS011;1510;51.072;6.678;2023-02-01T07:55:50;13.57;;;4.17;;
3000;SDS011;1510;51.072;6.678;2023-02-01T07:58:16;20.03;;;4.20;;
3000;SDS011;1510;51.072;6.678;2023-02-01T08:00:43;19.73;;;3.57;;
3000;SDS011;1510;51.072;6.678;2023-02-01T08:03:28;17.43;;;4.47;;
3000;SDS011;1510;51.072;6.678;2023-02-01T08:05:56;13.87;;;3.97;;
3000;SDS011;1510;51.072;6.678;2023-02-01T08:08:23;21.13;;;3.20;;
3000;SDS011;1510;51.072;6.678;2023-02-01T08:10:50;13.13;;;4.10;;
3000;SDS011;1510;51.072;6.678;2023-02-01T08:13:19;10.47;;;3.63;;
3000;SDS011;1510;51.072;6.678;2023-02-01T08:15:46;22.37;;;4.20;;
3000;SDS011;1510;51.072;6.678;2023-02-01T08:18:13;8.87;;;3.63;;
3000;SDS011;1510;51.072;6.678;2023-02-01T08:20:41;10.47;;;3.20;;
3000;SDS011;1510;51.072;6.678;2023-02-01T08:23:11;24.63;;;4.97;;
3000;SDS011;1510;51.072;6.678;2023-02-01T08:25:38;24.10;;;4.60;;
3000;SDS011;1510;51.072;6.678;2023-02-01T08:28:05;12.23;;;4.70;;
3000;SDS011;1510;51.072;6.678;2023-02-01T08:30:32;12.80;;;3.20;;
3000;SDS011;1510;51.072;6.678;2023-02-01T08:32:59;14.10;;;3.17;;
3000;SDS011;1510;51.072;6.678;2023-02-01T08:35:26;10.90;;;3.73;;
3000;SDS011;1510;51.072;6.678;2023-02-01T08:37:53;29.67;;;4.33;;
3000;SDS011;1510;51.072;6.678;2023-02-01T08:40:21;20.37;;;3.80;;
3000;SDS011;1510;51.072;6.678;2023-02-01T08:42:47;22.30;;;5.70;;
3000;SDS011;1510;51.072;6.678;2023-02-01T08:45:17;12.63;;;4.03;;
3000;SDS011;1510;51.072;6.678;2023-02-01T08:47:44;12.77;;;3.50;;
3000;SDS011;1510;51.072;6.678;2023-02-01T08:50:11;8.40;;;3.13;;
3000;SDS011;1510;51.072;6.678;2023-02-01T08:52:39;15.90;;;3.10;;
3000;SDS011;1510;51.072;6.678;2023-02-01T08:55:06;17.90;;;4.00;;
3000;SDS011;1510;51.072;6.678;2023-02-01T08:57:34;6.90;;;3.40;;
3000;SDS011;1510;51.072;6.678;2023-02-01T09:00:01;13.50;;;3.83;;
3000;SDS011;1510;51.072;6.678;2023-02-01T09:02:29;18.17;;;4.60;;
3000;SDS011;1510;51.072;6.678;2023-02-01T09:04:56;26.53;;;4.60;;
3000;SDS011;1510;51.072;6.678;2023-02-01T09:07:23;15.43;;;3.37;;
3000;SDS011;1510;51.072;6.678;2023-02-01T09:09:49;11.90;;;3.73;;
3000;SDS011;1510;51.072;6.678;2023-02-01T09:12:17;15.47;;;4.70;;
3000;SDS011;1510;51.072;6.678;2023-02-01T09:14:45;11.60;;;3.53;;
3000;SDS011;1510;51.072;6.678;2023-02-01T09:17:12;16.00;;;4.07;;
3000;SDS011;1510;51.072;6.678;2023-02-01T09:19:39;16.17;;;3.50;;
3000;SDS011;1510;51.072;6.678;2023-02-01T09:22:06;17.37;;;5.17;;
3000;SDS011;1510;51.072;6.678;2023-02-01T09:24:33;13.83;;;3.40;;
3000;SDS011;1510;51.072;6.678;2023-02-01T09:27:00;12.73;;;3.20;;
3000;SDS011;1510;51.072;6.678;2023-02-01T09:29:27;17.23;;;3.83;;
3000;SDS011;1510;51.072;6.678;2023-02-01T09:31:55;13.73;;;4.13;;
3000;SDS011;1510;51.072;6.678;2023-02-01T09:34:22;15.67;;;3.43;;
3000;SDS011;1510;51.072;6.678;2023-02-01T09:36:49;18.13;;;4.00;;
3000;SDS011;1510;51.072;6.678;2023-02-01T09:39:15;21.63;;;4.27;;
3000;SDS011;1510;51.072;6.678;2023-02-01T09:41:45;10.63;;;2.70;;
3000;SDS011;1510;51.072;6.678;2023-02-01T09:44:25;21.83;;;7.40;;
3000;SDS011;1510;51.072;6.678;2023-02-01T09:47:08;7.37;;;2.60;;
3000;SDS011;1510;51.072;6.678;2023-02-01T09:49:39;21.77;;;4.20;;
3000;SDS011;1510;51.072;6.678;2023-02-01T09:52:15;19.10;;;4.13;;
3000;SDS011;1510;51.072;6.678;2023-02-01T09:54:47;14.67;;;3.83;;
3000;SDS011;1510;51.072;6.678;2023-02-01T09:57:19;12.70;;;3.33;;
3000;SDS011;1510;51.072;6.678;2023-02-01T09:59:52;13.10;;;4.77;;
3000;SDS011;1510;51.072;6.678;2023-02-01T10:02:24;12.27;;;3.80;;
3000;SDS011;1510;51.072;6.678;2023-02-01T10:04:53;13.60;;;3.17;;
3000;SDS011;1510;51.072;6.678;2023-02-01T10:07:26;18.07;;;3.30;;
3000;SDS011;1510;51.072;6.678;2023-02-01T10:10:01;13.30;;;3.90;;
3000;SDS011;1510;51.072;6.678;2023-02-01T10:12:42;16.40;;;4.13;;
3000;SDS011;1510;51.072;6.678;2023-02-01T10:15:35;20.27;;;3.30;;
3000;SDS011;1510;51.072;6.678;2023-02-01T10:21:07;23.73;;;4.97;;
3000;SDS011;1510;51.072;6.678;2023-02-01T10:23:51;10.53;;;3.27;;
3000;SDS011;1510;51.072;6.678;2023-02-01T10:26:29;21.43;;;3.80;;
3000;SDS011;1510;51.072;6.678;2023-02-01T10:29:01;20.37;;;3.97;;
3000;SDS011;1510;51.072;6.678;2023-02-01T10:31:30;14.97;;;3.77;;
3000;SDS011;1510;51.072;6.678;2023-02-01T10:34:06;23.63;;;4.63;;
3000;SDS011;1510;51.072;6.678;2023-02-01T10:36:42;12.70;;;3.83;;
3000;SDS011;1510;51.072;6.678;2023-02-01T10:39:18;14.67;;;4.07;;
3000;SDS011;1510;51.072;6.678;2023-02-01T10:41:45;13.03;;;3.47;;
3000;SDS011;1510;51.072;6.678;2023-02-01T10:44:14;11.90;;;3.40;;
3000;SDS011;1510;51.072;6.678;2023-02-01T10:46:42;12.10;;;4.17;;
3000;SDS011;1510;51.072;6.678;2023-02-01T10:49:12;15.47;;;3.80;;
3000;SDS011;1510;51.072;6.678;2023-02-01T10:51:44;10.37;;;3.20;;
3000;SDS011;1510;51.072;6.678;2023-02-01T10:54:16;13.13;;;3.07;;
3000;SDS011;1510;51.072;6.678;2023-02-01T10:56:45;15.80;;;3.30;;
3000;SDS011;1510;51.072;6.678;2023-02-01T10:59:17;16.30;;;3.27;;
3000;SDS011;1510;51.072;6.678;2023-02-01T11:01:46;15.50;;;3.23;;
3000;SDS011;1510;51.072;6.678;2023-02-01T11:04:17;14.70;;;4.07;;
3000;SDS011;1510;51.072;6.678;2023-02-01T11:06:45;18.90;;;3.73;;
3000;SDS011;1510;51.072;6.678;2023-02-01T11:09:16;19.73;;;5.53;;
3000;SDS011;1510;51.072;6.678;2023-02-01T11:11:54;21.63;;;4.80;;
3000;SDS011;1510;51.072;6.678;2023-02-01T11:14:26;13.43;;;2.80;;
3000;SDS011;1510;51.072;6.678;2023-02-01T11:17:01;19.57;;;4.23;;
3000;SDS011;1510;51.072;6.678;2023-02-01T11:19:38;14.53;;;4.37;;
3000;SDS011;1510;51.072;6.678;2023-02-01T11:22:05;11.90;;;2.63;;
3000;SDS011;1510;51.072;6.678;2023-02-01T11:24:33;11.40;;;3.63;;
3000;SDS011;1510;51.072;6.678;2023-02-01T11:27:01;17.70;;;4.93;;
3000;SDS011;1510;51.072;6.678;2023-02-01T11:29:31;18.93;;;3.50;;
3000;SDS011;1510;51.072;6.678;2023-02-01T11:32:02;9.57;;;3.40;;
3000;SDS011;1510;51.072;6.678;2023-02-01T11:34:31;16.60;;;3.40;;
3000;SDS011;1510;51.072;6.678;2023-02-01T11:37:03;19.60;;;4.50;;
3000;SDS011;1510;51.072;6.678;2023-02-01T11:39:31;12.93;;;4.20;;
3000;SDS011;1510;51.072;6.678;2023-02-01T11:42:01;8.50;;;3.03;;
3000;SDS011;1510;51.072;6.678;2023-02-01T11:44:31;12.23;;;2.80;;
3000;SDS011;1510;51.072;6.678;2023-02-01T11:47:22;18.13;;;4.77;;
3000;SDS011;1510;51.072;6.678;2023-02-01T11:49:52;27.33;;;4.40;;
3000;SDS011;1510;51.072;6.678;2023-02-01T11:52:33;17.00;;;3.10;;
3000;SDS011;1510;51.072;6.678;2023-02-01T11:55:15;12.60;;;2.60;;
3000;SDS011;1510;51.072;6.678;2023-02-01T11:57:58;12.83;;;4.17;;
3000;SDS011;1510;51.072;6.678;2023-02-01T12:00:36;13.60;;;3.90;;
3000;SDS011;1510;51.072;6.678;2023-02-01T12:06:28;12.43;;;3.43;;
3000;SDS011;1510;51.072;6.678;2023-02-01T12:09:09;14.40;;;3.00;;
3000;SDS011;1510;51.072;6.678;2023-02-01T12:11:48;12.33;;;3.83;;
3000;SDS011;1510;51.072;6.678;2023-02-01T12:14:24;15.50;;;3.07;;
3000;SDS011;1510;51.072;6.678;2023-02-01T12:17:16;19.97;;;5.80;;
3000;SDS011;1510;51.072;6.678;2023-02-01T12:20:02;15.67;;;3.07;;
3000;SDS011;1510;51.072;6.678;2023-02-01T12:22:43;19.20;;;3.17;;
3000;SDS011;1510;51.072;6.678;2023-02-01T12:25:23;16.87;;;3.30;;
3000;SDS011;1510;51.072;6.678;2023-02-01T12:33:53;16.43;;;3.77;;
3000;SDS011;1510;51.072;6.678;2023-02-01T12:36:31;11.47;;;3.17;;
3000;SDS011;1510;51.072;6.678;2023-02-01T12:39:06;11.13;;;2.97;;
3000;SDS011;1510;51.072;6.678;2023-02-01T12:41:49;10.20;;;2.83;;
3000;SDS011;1510;51.072;6.678;2023-02-01T12:44:27;16.63;;;3.20;;
3000;SDS011;1510;51.072;6.678;2023-02-01T12:47:04;13.40;;;2.63;;
3000;SDS011;1510;51.072;6.678;2023-02-01T12:49:37;18.83;;;4.37;;
3000;SDS011;1510;51.072;6.678;2023-02-01T12:52:13;10.37;;;2.57;;
3000;SDS011;1510;51.072;6.678;2023-02-01T12:54:45;15.87;;;2.90;;
3000;SDS011;1510;51.072;6.678;2023-02-01T12:57:17;10.93;;;3.47;;
3000;SDS011;1510;51.072;6.678;2023-02-01T12:59:49;23.87;;;3.03;;
3000;SDS011;1510;51.072;6.678;2023-02-01T13:02:23;16.30;;;3.53;;
3000;SDS011;1510;51.072;6.678;2023-02-01T13:05:03;13.70;;;3.00;;
3000;SDS011;1510;51.072;6.678;2023-02-01T13:07:39;7.90;;;1.63;;
3000;SDS011;1510;51.072;6.678;2023-02-01T13:10:11;8.00;;;3.10;;
3000;SDS011;1510;51.072;6.678;2023-02-01T13:12:44;8.47;;;2.20;;
3000;SDS011;1510;51.072;6.678;2023-02-01T13:15:17;9.10;;;2.33;;
3000;SDS011;1510;51.072;6.678;2023-02-01T13:17:47;10.47;;;2.83;;
3000;SDS011;1510;51.072;6.678;2023-02-01T13:20:16;22.53;;;3.50;;
3000;SDS011;1510;51.072;6.678;2023-02-01T13:22:48;9.10;;;2.90;;
3000;SDS011;1510;51.072;6.678;2023-02-01T13:25:26;7.13;;;2.43;;
3000;SDS011;1510;51.072;6.678;2023-02-01T13:28:00;12.17;;;2.97;;
3000;SDS011;1510;51.072;6.678;2023-02-01T13:30:35;13.20;;;2.83;;
3000;SDS011;1510;51.072;6.678;2023-02-01T13:33:21;15.57;;;2.80;;
3000;SDS011;1510;51.072;6.678;2023-02-01T13:36:33;6.40;;;2.20;;
3000;SDS011;1510;51.072;6.678;2023-02-01T13:39:23;10.63;;;2.07;;
3000;SDS011;1510;51.072;6.678;2023-02-01T13:42:11;13.90;;;2.30;;
3000;SDS011;1510;51.072;6.678;2023-02-01T13:44:44;18.77;;;3.20;;
3000;SDS011;1510;51.072;6.678;2023-02-01T13:47:15;7.83;;;3.37;;
3000;SDS011;1510;51.072;6.678;2023-02-01T13:49:48;14.17;;;3.73;;
3000;SDS011;1510;51.072;6.678;2023-02-01T13:52:24;10.47;;;2.27;;
3000;SDS011;1510;51.072;6.678;2023-02-01T13:55:13;16.97;;;2.57;;
3000;SDS011;1510;51.072;6.678;2023-02-01T13:57:49;10.13;;;2.83;;
3000;SDS011;1510;51.072;6.678;2023-02-01T14:00:27;9.80;;;3.10;;
3000;SDS011;1510;51.072;6.678;2023-02-01T14:03:01;11.80;;;2.47;;
3000;SDS011;1510;51.072;6.678;2023-02-01T14:08:23;13.13;;;1.83;;
3000;SDS011;1510;51.072;6.678;2023-02-01T14:11:01;9.40;;;2.20;;
3000;SDS011;1510;51.072;6.678;2023-02-01T14:13:29;9.50;;;2.87;;
3000;SDS011;1510;51.072;6.678;2023-02-01T14:16:17;14.67;;;3.87;;
3000;SDS011;1510;51.072;6.678;2023-02-01T14:18:59;11.90;;;3.27;;
3000;SDS011;1510;51.072;6.678;2023-02-01T14:21:28;7.73;;;2.77;;
3000;SDS011;1510;51.072;6.678;2023-02-01T14:23:58;8.30;;;1.90;;
3000;SDS011;1510;51.072;6.678;2023-02-01T14:26:28;11.43;;;3.30;;
3000;SDS011;1510;51.072;6.678;2023-02-01T14:29:21;16.43;;;2.93;;
3000;SDS011;1510;51.072;6.678;2023-02-01T14:31:54;12.17;;;2.80;;
3000;SDS011;1510;51.072;6.678;2023-02-01T14:34:35;8.63;;;2.03;;
3000;SDS011;1510;51.072;6.678;2023-02-01T14:37:08;6.60;;;1.87;;
3000;SDS011;1510;51.072;6.678;2023-02-01T14:39:40;10.70;;;2.90;;
3000;SDS011;1510;51.072;6.678;2023-02-01T14:42:19;26.97;;;3.83;;
3000;SDS011;1510;51.072;6.678;2023-02-01T14:44:48;17.10;;;3.47;;
3000;SDS011;1510;51.072;6.678;2023-02-01T14:50:23;16.63;;;3.17;;
3000;SDS011;1510;51.072;6.678;2023-02-01T14:53:11;15.57;;;2.70;;
3000;SDS011;1510;51.072;6.678;2023-02-01T14:55:44;11.47;;;2.20;;
3000;SDS011;1510;51.072;6.678;2023-02-01T14:58:15;13.63;;;2.30;;
3000;SDS011;1510;51.072;6.678;2023-02-01T15:00:50;13.50;;;2.43;;
3000;SDS011;1510;51.072;6.678;2023-02-01T15:03:25;19.87;;;2.60;;
3000;SDS011;1510;51.072;6.678;2023-02-01T15:06:13;10.70;;;2.83;;
3000;SDS011;1510;51.072;6.678;2023-02-01T15:08:46;20.97;;;2.90;;
3000;SDS011;1510;51.072;6.678;2023-02-01T15:11:14;21.83;;;3.77;;
3000;SDS011;1510;51.072;6.678;2023-02-01T15:13:47;10.90;;;2.93;;
3000;SDS011;1510;51.072;6.678;2023-02-01T15:16:15;13.43;;;3.10;;
3000;SDS011;1510;51.072;6.678;2023-02-01T15:18:44;9.00;;;2.57;;
3000;SDS011;1510;51.072;6.678;2023-02-01T15:21:15;11.50;;;2.57;;
3000;SDS011;1510;51.072;6.678;2023-02-01T15:23:44;7.50;;;3.00;;
3000;SDS011;1510;51.072;6.678;2023-02-01T15:26:24;17.60;;;2.83;;
3000;SDS011;1510;51.072;6.678;2023-02-01T15:28:51;14.50;;;2.97;;
3000;SDS011;1510;51.072;6.678;2023-02-01T15:31:30;16.67;;;2.90;;
3000;SDS011;1510;51.072;6.678;2023-02-01T15:34:00;19.33;;;4.03;;
3000;SDS011;1510;51.072;6.678;2023-02-01T15:36:26;14.10;;;3.40;;
3000;SDS011;1510;51.072;6.678;2023-02-01T15:41:45;5.73;;;2.80;;
3000;SDS011;1510;51.072;6.678;2023-02-01T15:44:17;16.67;;;2.90;;
3000;SDS011;1510;51.072;6.678;2023-02-01T15:46:47;10.90;;;3.00;;
3000;SDS011;1510;51.072;6.678;2023-02-01T15:49:18;17.77;;;5.43;;
3000;SDS011;1510;51.072;6.678;2023-02-01T15:51:48;12.23;;;2.57;;
3000;SDS011;1510;51.072;6.678;2023-02-01T15:54:17;17.43;;;3.53;;